Terminal Aerodrome Forecast
Issued by NWS

Home | Current Version | Previous Version | Text Only | Print | Product List | Glossary On
Versions: 1 2 3 4 5 6 7 8 9 10 11 12 13 14
657
FTUS45 KABQ 241732
TAFROW
TAF
KROW 241732Z 2418/2518 27028G38KT P6SM SKC
     FM250000 28020G30KT P6SM SCT120
     FM250300 30011KT P6SM SCT120
     FM250700 32007KT P6SM FEW120=

USA.gov is the U.S. government's official web portal to all federal, state and local government web resources and services.